createdAt,value
2022-12-29T00:02:03.359Z,63.60
2022-12-29T00:07:08.151Z,63.52
2022-12-29T00:12:09.966Z,63.84
2022-12-29T00:17:11.702Z,62.94
2022-12-29T00:22:33.016Z,62.75
2022-12-29T00:27:54.673Z,63.45
2022-12-29T00:33:14.865Z,63.96
2022-12-29T00:38:35.253Z,63.80
2022-12-29T00:43:55.438Z,63.78
2022-12-29T00:49:15.781Z,63.35
2022-12-29T00:54:19.719Z,65.66
2022-12-29T00:59:21.667Z,68.03
2022-12-29T01:04:24.819Z,69.44
2022-12-29T01:09:45.156Z,71.92
2022-12-29T01:14:46.813Z,72.65
2022-12-29T01:19:48.567Z,74.04
2022-12-29T01:24:50.529Z,74.93
2022-12-29T01:29:52.107Z,75.32
2022-12-29T01:34:53.657Z,75.45
2022-12-29T01:39:55.305Z,75.40
2022-12-29T01:44:58.891Z,74.96
2022-12-29T01:50:04.059Z,74.71
2022-12-29T01:55:06.614Z,74.88
2022-12-29T02:00:10.619Z,74.98
2022-12-29T02:05:23.713Z,75.63
2022-12-29T02:10:26.946Z,76.25
2022-12-29T02:15:43.870Z,76.16
2022-12-29T02:20:58.903Z,75.87
2022-12-29T02:26:00.677Z,75.91
2022-12-29T02:31:21.140Z,74.84
2022-12-29T02:36:34.964Z,75.04
2022-12-29T02:41:45.475Z,75.03
2022-12-29T02:47:10.315Z,74.43
2022-12-29T02:52:20.957Z,73.73
2022-12-29T02:57:22.529Z,73.54
2022-12-29T03:02:31.877Z,72.71
2022-12-29T03:07:40.963Z,72.63
2022-12-29T03:13:07.456Z,71.73
2022-12-29T03:18:16.303Z,69.45
2022-12-29T03:23:20.844Z,69.61
2022-12-29T03:28:29.358Z,69.21
2022-12-29T03:33:32.152Z,69.07
2022-12-29T03:38:36.357Z,67.71
2022-12-29T03:43:38.462Z,68.64
2022-12-29T03:48:40.423Z,68.32
2022-12-29T03:53:42.049Z,68.00
2022-12-29T03:58:43.681Z,68.68
2022-12-29T04:03:49.970Z,67.99
2022-12-29T04:08:51.865Z,67.75
2022-12-29T04:13:53.397Z,67.33
2022-12-29T04:18:59.062Z,68.64
2022-12-29T04:24:01.005Z,68.30
2022-12-29T04:29:02.871Z,67.92
2022-12-29T04:34:18.059Z,68.38
2022-12-29T04:39:21.530Z,67.74
2022-12-29T04:44:23.394Z,68.81
2022-12-29T04:49:45.627Z,69.00
2022-12-29T04:55:09.996Z,69.23
2022-12-29T05:00:12.232Z,70.00
2022-12-29T05:05:13.968Z,70.51
2022-12-29T05:10:18.688Z,70.24
2022-12-29T05:15:21.210Z,71.30
2022-12-29T05:20:22.763Z,72.91
2022-12-29T05:25:24.406Z,73.82
2022-12-29T05:30:32.929Z,73.88
2022-12-29T05:35:34.752Z,73.33
2022-12-29T05:40:36.562Z,72.82
2022-12-29T05:45:42.520Z,73.45
2022-12-29T05:51:04.048Z,72.78
2022-12-29T05:56:19.628Z,73.12
2022-12-29T06:01:28.614Z,73.60
2022-12-29T06:06:30.226Z,72.44
2022-12-29T06:11:32.207Z,73.49
2022-12-29T06:16:35.745Z,73.03
2022-12-29T06:21:40.515Z,72.10
2022-12-29T06:26:42.927Z,72.03
2022-12-29T06:31:46.597Z,69.72
2022-12-29T06:36:48.256Z,70.73
2022-12-29T06:41:52.955Z,71.86
2022-12-29T06:47:10.766Z,72.57
2022-12-29T06:52:13.251Z,74.51
2022-12-29T06:57:15.610Z,74.00
2022-12-29T07:02:19.328Z,74.50
2022-12-29T07:07:21.188Z,75.01
2022-12-29T07:12:22.879Z,75.87
2022-12-29T07:17:24.392Z,76.43
2022-12-29T07:22:26.152Z,76.00
2022-12-29T07:27:27.764Z,74.92
2022-12-29T07:32:29.263Z,74.75
2022-12-29T07:37:30.875Z,74.79
2022-12-29T07:42:32.720Z,75.38
2022-12-29T07:47:35.092Z,74.80
2022-12-29T07:52:36.661Z,75.85
2022-12-29T07:57:38.240Z,74.62
2022-12-29T08:02:39.832Z,74.26
2022-12-29T08:07:41.365Z,74.09
2022-12-29T08:12:43.478Z,72.48
2022-12-29T08:17:44.957Z,72.54
2022-12-29T08:22:46.507Z,71.37
2022-12-29T08:27:48.191Z,71.25
2022-12-29T08:32:49.885Z,70.26
2022-12-29T08:37:51.487Z,70.01
2022-12-29T08:42:53.067Z,70.37
2022-12-29T08:47:54.735Z,70.51
2022-12-29T08:52:56.300Z,69.21
2022-12-29T08:57:57.780Z,67.78
2022-12-29T09:02:59.748Z,66.44
2022-12-29T09:08:01.382Z,66.28
2022-12-29T09:13:02.929Z,65.90
2022-12-29T09:18:04.907Z,65.61
2022-12-29T09:23:07.328Z,64.74
2022-12-29T09:28:08.882Z,65.10
2022-12-29T09:33:10.338Z,64.67
2022-12-29T09:38:12.388Z,63.55
2022-12-29T09:43:32.466Z,63.55
2022-12-29T09:48:35.690Z,64.71
2022-12-29T09:53:39.095Z,64.20
2022-12-29T09:58:42.757Z,63.57
2022-12-29T10:03:51.793Z,62.56
2022-12-29T10:08:56.260Z,62.12
2022-12-29T10:13:57.717Z,60.73
2022-12-29T10:19:17.998Z,60.16
2022-12-29T10:24:20.837Z,59.81
2022-12-29T10:29:43.601Z,58.83
2022-12-29T10:34:48.441Z,58.52
2022-12-29T10:39:54.450Z,58.97
2022-12-29T10:44:57.198Z,59.06
2022-12-29T10:50:01.584Z,59.64
2022-12-29T10:55:13.050Z,58.75
2022-12-29T11:00:21.947Z,58.51
2022-12-29T11:05:28.289Z,57.68
2022-12-29T11:10:36.965Z,57.27
2022-12-29T11:15:43.158Z,56.79
2022-12-29T11:20:44.830Z,56.18
2022-12-29T11:25:46.311Z,57.62
2022-12-29T11:30:59.735Z,57.08
2022-12-29T11:36:21.502Z,55.44
2022-12-29T11:41:27.030Z,55.47
2022-12-29T11:46:30.761Z,55.52
2022-12-29T11:51:35.088Z,54.48
2022-12-29T11:56:42.095Z,55.32
2022-12-29T12:01:43.955Z,56.32
2022-12-29T12:06:48.975Z,57.14
2022-12-29T12:11:54.789Z,55.97
2022-12-29T12:17:00.211Z,57.03
2022-12-29T12:22:05.999Z,57.13
2022-12-29T12:27:10.286Z,56.23
2022-12-29T12:32:32.113Z,56.33
2022-12-29T12:37:44.737Z,56.10
2022-12-29T12:43:01.460Z,56.59
2022-12-29T12:48:08.882Z,57.02
2022-12-29T12:53:10.385Z,56.74
2022-12-29T12:58:20.844Z,56.73
2022-12-29T13:03:41.189Z,55.69
2022-12-29T13:08:51.881Z,56.15
2022-12-29T13:13:54.848Z,55.47
2022-12-29T13:18:59.542Z,55.98
2022-12-29T13:24:05.729Z,55.20
2022-12-29T13:29:15.850Z,54.19
2022-12-29T13:34:23.311Z,55.87
2022-12-29T13:39:48.095Z,54.62
2022-12-29T13:44:52.311Z,54.93
2022-12-29T13:49:55.352Z,55.21
2022-12-29T13:55:03.214Z,55.51
2022-12-29T14:00:12.101Z,55.65
2022-12-29T14:05:22.546Z,56.85
2022-12-29T14:10:29.051Z,56.36
2022-12-29T14:15:30.613Z,55.80
2022-12-29T14:20:32.800Z,55.83
2022-12-29T14:25:53.655Z,55.92
2022-12-29T14:30:56.438Z,55.93
2022-12-29T14:35:58.500Z,56.86
2022-12-29T14:41:20.669Z,56.34
2022-12-29T14:46:22.980Z,57.00
2022-12-29T14:51:36.910Z,56.15
2022-12-29T14:56:39.240Z,56.89
2022-12-29T15:01:44.429Z,56.99
2022-12-29T15:06:46.975Z,56.77
2022-12-29T15:11:50.759Z,56.54
2022-12-29T15:16:52.305Z,58.12
2022-12-29T15:21:55.001Z,57.84
2022-12-29T15:26:56.571Z,58.59
2022-12-29T15:32:02.606Z,58.48
2022-12-29T15:37:08.000Z,59.23
2022-12-29T15:42:24.909Z,59.73
2022-12-29T15:47:29.776Z,59.37
2022-12-29T15:52:32.502Z,59.30
2022-12-29T15:57:38.453Z,58.66
2022-12-29T16:02:40.195Z,58.57
2022-12-29T16:07:52.173Z,59.93
2022-12-29T16:12:53.796Z,60.14
2022-12-29T16:17:56.680Z,61.13
2022-12-29T16:22:59.718Z,61.58
2022-12-29T16:28:02.035Z,61.78
2022-12-29T16:33:05.029Z,60.75
2022-12-29T16:38:18.856Z,61.22
2022-12-29T16:43:22.136Z,61.73
2022-12-29T16:48:26.490Z,61.37
2022-12-29T16:53:30.993Z,60.92
2022-12-29T16:58:34.421Z,61.12
2022-12-29T17:03:41.155Z,61.17
2022-12-29T17:08:43.603Z,61.47
2022-12-29T17:13:45.106Z,62.53
2022-12-29T17:18:46.585Z,62.83
2022-12-29T17:23:48.325Z,62.80
2022-12-29T17:28:50.056Z,63.26
2022-12-29T17:33:53.230Z,63.98
2022-12-29T17:38:54.889Z,63.92
2022-12-29T17:43:56.742Z,64.46
2022-12-29T17:48:58.742Z,65.15
2022-12-29T17:54:00.497Z,65.66
2022-12-29T17:59:02.111Z,65.77
2022-12-29T18:04:03.710Z,66.03
2022-12-29T18:09:08.521Z,66.73
2022-12-29T18:14:18.753Z,67.68
2022-12-29T18:19:20.247Z,69.11
2022-12-29T18:24:21.792Z,68.95
2022-12-29T18:29:23.379Z,69.74
2022-12-29T18:34:25.052Z,70.75
2022-12-29T18:39:29.728Z,72.23
2022-12-29T18:44:31.462Z,73.21
2022-12-29T18:49:32.949Z,73.85
2022-12-29T18:54:34.620Z,75.37
2022-12-29T18:59:36.202Z,76.42
2022-12-29T19:04:37.772Z,76.75
2022-12-29T19:09:39.347Z,74.44
2022-12-29T19:14:40.877Z,73.19
2022-12-29T19:19:43.038Z,72.33
2022-12-29T19:24:44.612Z,73.10
2022-12-29T19:29:46.431Z,72.86
2022-12-29T19:34:48.960Z,71.98
2022-12-29T19:39:50.549Z,73.38
2022-12-29T19:44:52.840Z,72.85
2022-12-29T19:49:54.539Z,72.88
2022-12-29T19:54:56.453Z,72.93
2022-12-29T19:59:58.628Z,73.09
2022-12-29T20:05:00.394Z,70.95
2022-12-29T20:10:02.084Z,68.95
2022-12-29T20:15:05.023Z,67.94
2022-12-29T20:20:07.945Z,68.50
2022-12-29T20:25:43.753Z,68.25
2022-12-29T20:30:31.865Z,68.62
2022-12-29T20:35:33.469Z,68.27
2022-12-29T20:40:40.670Z,68.40
2022-12-29T20:45:46.030Z,67.73
2022-12-29T20:50:47.625Z,69.45
2022-12-29T20:55:50.772Z,69.32
2022-12-29T21:00:52.850Z,68.86
2022-12-29T21:05:56.015Z,67.93
2022-12-29T21:11:00.936Z,68.51
2022-12-29T21:16:04.557Z,68.32
2022-12-29T21:21:07.599Z,67.60
2022-12-29T21:26:09.535Z,68.12
2022-12-29T21:31:12.903Z,68.68
2022-12-29T21:36:14.478Z,68.82
2022-12-29T21:41:17.589Z,69.07
2022-12-29T21:46:23.146Z,69.46
2022-12-29T21:51:43.369Z,69.53
2022-12-29T21:56:45.860Z,70.02
2022-12-29T22:02:06.405Z,70.91
2022-12-29T22:07:27.372Z,70.44
2022-12-29T22:12:48.203Z,70.50
2022-12-29T22:17:53.624Z,71.08
2022-12-29T22:22:55.484Z,70.66
2022-12-29T22:27:59.546Z,70.61
2022-12-29T22:33:02.058Z,71.74
2022-12-29T22:38:03.612Z,72.60
2022-12-29T22:43:11.067Z,71.95
2022-12-29T22:48:16.829Z,72.60
2022-12-29T22:53:18.376Z,72.67
2022-12-29T22:58:19.930Z,72.60
2022-12-29T23:03:21.592Z,72.09
2022-12-29T23:08:23.238Z,71.77
2022-12-29T23:13:24.792Z,71.83
2022-12-29T23:18:26.688Z,70.84
2022-12-29T23:23:49.647Z,70.88
2022-12-29T23:28:57.849Z,71.68
2022-12-29T23:34:02.751Z,70.95
2022-12-29T23:39:04.753Z,70.02
2022-12-29T23:44:06.328Z,69.66
2022-12-29T23:49:08.604Z,69.88
2022-12-29T23:54:10.142Z,69.54
2022-12-29T23:59:11.708Z,69.19
